createdAt,value
2022-08-19T00:01:59.295Z,7.45
2022-08-19T00:04:30.393Z,7.68
2022-08-19T00:06:57.648Z,5.13
2022-08-19T00:09:25.518Z,7.13
2022-08-19T00:11:53.901Z,6.50
2022-08-19T00:14:21.761Z,5.53
2022-08-19T00:16:49.514Z,6.25
2022-08-19T00:19:17.113Z,4.93
2022-08-19T00:21:44.373Z,5.00
2022-08-19T00:24:13.539Z,4.80
2022-08-19T00:26:42.030Z,4.80
2022-08-19T00:29:12.136Z,4.38
2022-08-19T00:31:42.720Z,4.35
2022-08-19T00:34:09.374Z,4.45
2022-08-19T00:36:36.178Z,5.03
2022-08-19T00:39:03.243Z,5.90
2022-08-19T00:41:30.018Z,4.05
2022-08-19T00:44:13.615Z,4.93
2022-08-19T00:46:43.139Z,4.35
2022-08-19T00:49:15.672Z,5.18
2022-08-19T00:51:45.623Z,5.20
2022-08-19T00:54:12.644Z,10.15
2022-08-19T00:56:39.436Z,8.15
2022-08-19T00:59:10.003Z,5.32
2022-08-19T01:01:42.045Z,6.05
2022-08-19T01:04:09.164Z,6.47
2022-08-19T01:06:38.234Z,6.80
2022-08-19T01:09:06.137Z,7.05
2022-08-19T01:11:36.313Z,6.13
2022-08-19T01:14:03.795Z,7.13
2022-08-19T01:16:32.247Z,6.80
2022-08-19T01:18:58.754Z,6.07
2022-08-19T01:21:53.135Z,5.57
2022-08-19T01:24:19.664Z,5.85
2022-08-19T01:26:48.712Z,6.70
2022-08-19T01:29:15.800Z,5.57
2022-08-19T01:31:42.585Z,7.13
2022-08-19T01:34:09.261Z,5.70
2022-08-19T01:36:40.268Z,5.60
2022-08-19T01:39:11.489Z,6.93
2022-08-19T01:41:38.173Z,6.13
2022-08-19T01:44:17.996Z,6.10
2022-08-19T01:46:48.548Z,5.82
2022-08-19T01:49:18.036Z,5.28
2022-08-19T01:51:44.760Z,5.90
2022-08-19T01:54:14.025Z,6.72
2022-08-19T01:56:52.201Z,5.95
2022-08-19T01:59:22.187Z,7.07
2022-08-19T02:01:48.813Z,7.20
2022-08-19T02:04:15.613Z,7.47
2022-08-19T02:06:42.205Z,7.07
2022-08-19T02:09:09.521Z,6.55
2022-08-19T02:11:37.826Z,7.65
2022-08-19T02:14:07.272Z,5.75
2022-08-19T02:16:34.395Z,10.20
2022-08-19T02:19:03.778Z,6.30
2022-08-19T02:21:31.215Z,5.22
2022-08-19T02:23:58.169Z,5.80
2022-08-19T02:26:26.657Z,5.05
2022-08-19T02:28:54.200Z,5.72
2022-08-19T02:31:23.052Z,5.20
2022-08-19T02:33:53.441Z,5.28
2022-08-19T02:36:24.372Z,5.82
2022-08-19T02:38:54.949Z,6.05
2022-08-19T02:41:29.340Z,5.45
2022-08-19T02:44:14.275Z,7.15
2022-08-19T02:46:47.350Z,6.68
2022-08-19T02:49:17.210Z,6.50
2022-08-19T02:51:45.385Z,7.43
2022-08-19T02:54:13.815Z,7.28
2022-08-19T02:56:42.223Z,16.77
2022-08-19T02:59:11.917Z,7.85
2022-08-19T03:01:40.772Z,8.70
2022-08-19T03:04:09.053Z,7.32
2022-08-19T03:06:38.568Z,7.78
2022-08-19T03:09:05.092Z,7.53
2022-08-19T03:11:33.595Z,7.72
2022-08-19T03:14:01.952Z,7.28
2022-08-19T03:16:33.283Z,7.40
2022-08-19T03:19:01.813Z,7.28
2022-08-19T03:21:31.140Z,7.13
2022-08-19T03:23:59.899Z,10.35
2022-08-19T03:26:26.884Z,7.25
2022-08-19T03:28:58.240Z,8.63
2022-08-19T03:31:44.901Z,7.82
2022-08-19T03:34:28.401Z,7.95
2022-08-19T03:36:57.183Z,15.52
2022-08-19T03:39:25.448Z,10.18
2022-08-19T03:42:32.229Z,10.00
2022-08-19T03:44:40.330Z,11.10
2022-08-19T03:47:07.408Z,9.80
2022-08-19T03:49:36.113Z,16.20
2022-08-19T03:52:06.514Z,9.55
2022-08-19T03:54:33.092Z,11.48
2022-08-19T03:57:00.339Z,9.65
2022-08-19T03:59:33.148Z,13.50
2022-08-19T04:02:03.646Z,10.40
2022-08-19T04:04:31.860Z,13.93
2022-08-19T04:06:58.766Z,10.82
2022-08-19T04:09:26.906Z,13.18
2022-08-19T04:11:57.069Z,12.45
2022-08-19T04:14:26.996Z,13.60
2022-08-19T04:16:54.190Z,11.60
2022-08-19T04:19:21.542Z,13.55
2022-08-19T04:21:51.112Z,12.38
2022-08-19T04:24:19.605Z,10.23
2022-08-19T04:26:46.731Z,11.40
2022-08-19T04:29:19.672Z,11.90
2022-08-19T04:31:46.758Z,12.13
2022-08-19T04:34:16.385Z,16.13
2022-08-19T04:36:45.678Z,11.48
2022-08-19T04:39:17.602Z,10.88
2022-08-19T04:42:04.405Z,12.27
2022-08-19T04:44:35.742Z,10.38
2022-08-19T04:47:11.135Z,12.45
2022-08-19T04:49:38.336Z,11.85
2022-08-19T04:52:04.886Z,10.80
2022-08-19T04:54:38.677Z,10.73
2022-08-19T04:57:08.531Z,11.40
2022-08-19T04:59:35.887Z,10.60
2022-08-19T05:02:02.869Z,14.48
2022-08-19T05:04:32.834Z,13.43
2022-08-19T05:07:01.742Z,11.70
2022-08-19T05:09:32.904Z,11.25
2022-08-19T05:12:16.972Z,12.70
2022-08-19T05:14:45.404Z,10.55
2022-08-19T05:17:27.015Z,12.98
2022-08-19T05:20:13.449Z,11.60
2022-08-19T05:22:40.321Z,10.25
2022-08-19T05:25:13.113Z,11.65
2022-08-19T05:27:40.902Z,12.07
2022-08-19T05:30:08.056Z,10.68
2022-08-19T05:32:34.944Z,13.55
2022-08-19T05:35:01.778Z,11.25
2022-08-19T05:37:28.627Z,12.50
2022-08-19T05:39:56.035Z,10.65
2022-08-19T05:42:24.088Z,11.50
2022-08-19T05:44:51.560Z,12.50
2022-08-19T05:47:20.770Z,12.38
2022-08-19T05:49:48.728Z,15.95
2022-08-19T05:52:18.724Z,12.52
2022-08-19T05:54:51.214Z,12.63
2022-08-19T05:57:19.123Z,13.07
2022-08-19T05:59:49.332Z,13.45
2022-08-19T06:02:19.693Z,16.77
2022-08-19T06:04:46.300Z,21.65
2022-08-19T06:07:13.184Z,22.67
2022-08-19T06:09:41.339Z,20.15
2022-08-19T06:12:10.327Z,20.67
2022-08-19T06:14:40.285Z,24.77
2022-08-19T06:17:09.333Z,25.08
2022-08-19T06:19:40.528Z,23.00
2022-08-19T06:22:08.636Z,22.20
2022-08-19T06:24:36.157Z,27.38
2022-08-19T06:27:03.997Z,31.30
2022-08-19T06:29:31.240Z,25.83
2022-08-19T06:32:00.383Z,29.65
2022-08-19T06:34:30.388Z,34.55
2022-08-19T06:36:58.727Z,30.20
2022-08-19T06:39:28.235Z,28.08
2022-08-19T06:41:59.151Z,29.55
2022-08-19T06:44:29.397Z,36.20
2022-08-19T06:46:58.722Z,33.25
2022-08-19T06:49:26.056Z,30.98
2022-08-19T06:51:52.603Z,38.58
2022-08-19T06:54:20.412Z,33.20
2022-08-19T06:56:47.706Z,38.70
2022-08-19T06:59:21.344Z,39.60
2022-08-19T07:01:53.122Z,36.83
2022-08-19T07:04:24.643Z,39.67
2022-08-19T07:06:57.285Z,43.47
2022-08-19T07:09:25.387Z,38.92
2022-08-19T07:11:54.499Z,38.30
2022-08-19T07:14:25.505Z,46.85
2022-08-19T07:16:55.917Z,42.30
2022-08-19T07:19:25.539Z,37.65
2022-08-19T07:21:55.427Z,40.92
2022-08-19T07:24:25.139Z,39.08
2022-08-19T07:26:53.936Z,40.55
2022-08-19T07:29:25.666Z,41.78
2022-08-19T07:32:00.002Z,45.72
2022-08-19T07:34:29.141Z,48.55
2022-08-19T07:36:56.632Z,49.22
2022-08-19T07:39:27.078Z,47.42
2022-08-19T07:41:54.583Z,45.90
2022-08-19T07:44:22.001Z,50.20
2022-08-19T07:46:53.337Z,49.00
2022-08-19T07:49:21.060Z,46.08
2022-08-19T07:51:53.573Z,44.05
2022-08-19T07:54:21.889Z,37.85
2022-08-19T07:56:48.449Z,39.35
2022-08-19T07:59:20.649Z,38.78
2022-08-19T08:01:47.853Z,32.92
2022-08-19T08:04:34.042Z,32.78
2022-08-19T08:07:19.108Z,42.00
2022-08-19T08:09:46.587Z,38.05
2022-08-19T08:12:34.122Z,45.10
2022-08-19T08:15:08.910Z,39.45
2022-08-19T08:17:49.579Z,39.17
2022-08-19T08:20:20.091Z,41.53
2022-08-19T08:23:07.079Z,35.22
2022-08-19T08:25:34.388Z,43.03
2022-08-19T08:28:03.252Z,42.45
2022-08-19T08:30:33.340Z,39.22
2022-08-19T08:33:00.903Z,35.42
2022-08-19T08:35:29.608Z,31.17
2022-08-19T08:37:57.668Z,30.02
2022-08-19T08:40:27.189Z,43.53
2022-08-19T08:43:32.299Z,31.90
2022-08-19T08:46:31.276Z,31.60
2022-08-19T08:49:29.481Z,35.15
2022-08-19T08:52:05.026Z,35.83
2022-08-19T08:54:38.662Z,39.15
2022-08-19T08:57:12.386Z,31.92
2022-08-19T08:59:42.121Z,36.42
2022-08-19T09:02:09.062Z,36.58
2022-08-19T09:04:38.372Z,35.33
2022-08-19T09:07:27.116Z,29.23
2022-08-19T09:10:16.861Z,32.83
2022-08-19T09:12:53.585Z,33.70
2022-08-19T09:15:36.629Z,34.30
2022-08-19T09:18:07.074Z,31.20
2022-08-19T09:20:34.326Z,29.05
2022-08-19T09:23:00.919Z,28.83
2022-08-19T09:25:29.667Z,24.17
2022-08-19T09:28:02.581Z,26.02
2022-08-19T09:30:35.704Z,28.05
2022-08-19T09:33:02.661Z,23.80
2022-08-19T09:35:31.377Z,27.95
2022-08-19T09:38:00.133Z,32.28
2022-08-19T09:40:33.466Z,24.55
2022-08-19T09:43:11.408Z,22.58
2022-08-19T09:45:39.749Z,27.13
2022-08-19T09:48:07.116Z,25.88
2022-08-19T09:50:35.134Z,26.33
2022-08-19T09:53:01.710Z,26.38
2022-08-19T09:55:32.062Z,21.35
2022-08-19T09:58:00.939Z,25.05
2022-08-19T10:00:28.029Z,19.60
2022-08-19T10:02:54.530Z,24.23
2022-08-19T10:05:42.383Z,25.90
2022-08-19T10:08:13.239Z,24.60
2022-08-19T10:10:46.763Z,19.88
2022-08-19T10:13:16.636Z,22.23
2022-08-19T10:15:47.605Z,21.88
2022-08-19T10:18:19.048Z,26.75
2022-08-19T10:20:51.731Z,27.70
2022-08-19T10:23:21.776Z,23.63
2022-08-19T10:25:49.106Z,25.30
2022-08-19T10:28:15.685Z,38.30
2022-08-19T10:30:42.900Z,27.75
2022-08-19T10:33:11.258Z,28.15
2022-08-19T10:35:56.502Z,30.42
2022-08-19T10:38:31.717Z,32.60
2022-08-19T10:41:07.664Z,29.02
2022-08-19T10:43:40.491Z,29.27
2022-08-19T10:46:14.076Z,27.75
2022-08-19T10:48:44.578Z,22.70
2022-08-19T10:51:31.249Z,21.80
2022-08-19T10:53:59.530Z,26.40
2022-08-19T10:56:45.836Z,23.98
2022-08-19T10:59:14.610Z,24.02
2022-08-19T11:01:42.956Z,21.23
2022-08-19T11:04:12.212Z,21.33
2022-08-19T11:06:39.451Z,24.67
2022-08-19T11:09:06.900Z,22.90
2022-08-19T11:11:34.027Z,25.58
2022-08-19T11:14:06.036Z,25.45
2022-08-19T11:16:33.410Z,28.02
2022-08-19T11:19:00.677Z,25.52
2022-08-19T11:21:33.480Z,24.27
2022-08-19T11:24:02.976Z,20.30
2022-08-19T11:26:31.467Z,22.25
2022-08-19T11:28:59.456Z,22.98
2022-08-19T11:31:29.897Z,23.63
2022-08-19T11:34:04.116Z,18.20
2022-08-19T11:36:32.304Z,19.20
2022-08-19T11:38:59.188Z,15.65
2022-08-19T11:41:27.193Z,9.93
2022-08-19T11:43:56.201Z,9.82
2022-08-19T11:46:24.918Z,8.00
2022-08-19T11:48:52.137Z,14.57
2022-08-19T11:51:25.468Z,13.57
2022-08-19T11:53:53.737Z,11.93
2022-08-19T11:56:21.020Z,10.85
2022-08-19T11:58:47.911Z,11.63
2022-08-19T12:01:18.404Z,8.75
2022-08-19T12:03:46.712Z,8.73
2022-08-19T12:06:16.173Z,7.75
2022-08-19T12:08:44.009Z,4.43
2022-08-19T12:11:12.746Z,4.93
2022-08-19T12:13:39.941Z,6.60
2022-08-19T12:16:15.883Z,5.47
2022-08-19T12:18:47.260Z,5.78
2022-08-19T12:21:19.231Z,4.20
2022-08-19T12:23:50.767Z,5.95
2022-08-19T12:26:19.272Z,6.13
2022-08-19T12:28:45.790Z,8.02
2022-08-19T12:31:13.094Z,6.28
2022-08-19T12:33:40.707Z,8.80
2022-08-19T12:36:10.358Z,3.67
2022-08-19T12:38:38.060Z,6.43
2022-08-19T12:41:08.570Z,4.55
2022-08-19T12:43:38.746Z,5.32
2022-08-19T12:46:06.472Z,3.53
2022-08-19T12:48:34.989Z,4.68
2022-08-19T12:51:08.362Z,5.25
2022-08-19T12:53:35.323Z,6.90
2022-08-19T12:56:07.599Z,4.25
2022-08-19T12:58:38.134Z,3.33
2022-08-19T13:01:12.729Z,5.03
2022-08-19T13:03:41.296Z,5.15
2022-08-19T13:06:09.557Z,5.07
2022-08-19T13:08:36.838Z,4.43
2022-08-19T13:11:15.447Z,4.22
2022-08-19T13:13:44.096Z,4.03
2022-08-19T13:16:12.866Z,4.57
2022-08-19T13:18:41.192Z,7.95
2022-08-19T13:21:09.568Z,6.97
2022-08-19T13:23:37.050Z,9.82
2022-08-19T13:26:06.151Z,5.57
2022-08-19T13:28:52.431Z,3.72
2022-08-19T13:31:40.832Z,4.80
2022-08-19T13:34:07.814Z,6.50
2022-08-19T13:36:35.381Z,3.25
2022-08-19T13:39:02.267Z,6.38
2022-08-19T13:41:28.840Z,7.15
2022-08-19T13:43:55.434Z,3.90
2022-08-19T13:46:22.283Z,3.38
2022-08-19T13:48:49.384Z,4.13
2022-08-19T13:51:17.886Z,3.40
2022-08-19T13:53:48.070Z,3.30
2022-08-19T13:56:18.027Z,4.18
2022-08-19T13:58:44.528Z,6.55
2022-08-19T14:01:11.727Z,4.38
2022-08-19T14:03:39.322Z,4.03
2022-08-19T14:06:06.252Z,4.40
2022-08-19T14:08:33.705Z,4.32
2022-08-19T14:11:00.545Z,4.88
2022-08-19T14:13:34.626Z,3.53
2022-08-19T14:16:01.226Z,4.55
2022-08-19T14:18:28.590Z,5.15
2022-08-19T14:20:56.422Z,4.45
2022-08-19T14:23:23.254Z,3.22
2022-08-19T14:25:49.819Z,4.15
2022-08-19T14:28:17.790Z,2.67
2022-08-19T14:30:45.562Z,3.00
2022-08-19T14:33:12.571Z,1.75
2022-08-19T14:35:39.172Z,2.80
2022-08-19T14:38:07.668Z,3.13
2022-08-19T14:40:35.627Z,1.38
2022-08-19T14:43:06.978Z,1.38
2022-08-19T14:45:37.775Z,0.93
2022-08-19T14:48:06.074Z,2.13
2022-08-19T14:50:33.894Z,1.88
2022-08-19T14:53:09.339Z,0.60
2022-08-19T14:55:42.304Z,5.53
2022-08-19T14:58:09.866Z,2.25
2022-08-19T15:00:56.857Z,1.30
2022-08-19T15:03:23.363Z,1.38
2022-08-19T15:05:49.897Z,1.95
2022-08-19T15:08:16.402Z,1.33
2022-08-19T15:10:43.209Z,1.80
2022-08-19T15:13:10.389Z,0.93
2022-08-19T15:15:36.897Z,1.95
2022-08-19T15:18:04.828Z,1.30
2022-08-19T15:20:31.859Z,1.95
2022-08-19T15:22:59.894Z,2.05
2022-08-19T15:25:27.980Z,1.60
2022-08-19T15:27:54.891Z,1.60
2022-08-19T15:30:24.950Z,1.30
2022-08-19T15:32:53.497Z,0.75
2022-08-19T15:35:21.353Z,1.02
2022-08-19T15:37:53.060Z,3.05
2022-08-19T15:40:20.957Z,1.50
2022-08-19T15:42:47.577Z,2.65
2022-08-19T15:45:14.927Z,2.13
2022-08-19T15:47:42.297Z,1.27
2022-08-19T15:50:12.295Z,1.05
2022-08-19T15:52:57.845Z,1.02
2022-08-19T15:55:32.997Z,1.90
2022-08-19T15:58:31.810Z,2.90
2022-08-19T16:01:23.755Z,3.05
2022-08-19T16:04:14.112Z,1.80
2022-08-19T16:07:03.426Z,1.25
2022-08-19T16:09:31.610Z,1.23
2022-08-19T16:12:02.420Z,3.15
2022-08-19T16:14:32.119Z,3.13
2022-08-19T16:16:58.665Z,3.25
2022-08-19T16:19:25.711Z,1.15
2022-08-19T16:21:54.454Z,3.30
2022-08-19T16:24:24.086Z,2.22
2022-08-19T16:26:51.100Z,1.52
2022-08-19T16:29:33.352Z,0.80
2022-08-19T16:32:03.035Z,2.05
2022-08-19T16:34:30.356Z,0.98
2022-08-19T16:36:56.949Z,2.75
2022-08-19T16:39:23.764Z,2.47
2022-08-19T16:41:51.049Z,3.30
2022-08-19T16:44:19.446Z,10.23
2022-08-19T16:46:47.249Z,2.67
2022-08-19T16:49:54.076Z,1.48
2022-08-19T16:52:14.802Z,3.00
2022-08-19T16:54:43.571Z,1.70
2022-08-19T16:57:11.978Z,1.58
2022-08-19T16:59:48.267Z,1.23
2022-08-19T17:02:17.435Z,1.75
2022-08-19T17:04:43.966Z,0.80
2022-08-19T17:07:10.742Z,3.13
2022-08-19T17:09:37.934Z,1.17
2022-08-19T17:12:05.265Z,2.80
2022-08-19T17:14:31.775Z,1.63
2022-08-19T17:16:58.462Z,1.58
2022-08-19T17:19:24.982Z,1.48
2022-08-19T17:21:51.853Z,2.65
2022-08-19T17:24:18.348Z,1.30
2022-08-19T17:26:45.731Z,1.65
2022-08-19T17:29:12.383Z,1.75
2022-08-19T17:31:38.971Z,2.92
2022-08-19T17:34:05.629Z,1.40
2022-08-19T17:36:34.100Z,2.25
2022-08-19T17:39:02.382Z,0.68
2022-08-19T17:41:30.402Z,1.60
2022-08-19T17:43:57.810Z,0.85
2022-08-19T17:46:24.522Z,1.85
2022-08-19T17:48:55.150Z,0.90
2022-08-19T17:51:25.253Z,1.20
2022-08-19T17:53:53.675Z,1.40
2022-08-19T17:56:21.569Z,1.02
2022-08-19T17:58:57.698Z,1.98
2022-08-19T18:01:30.091Z,2.53
2022-08-19T18:04:17.231Z,0.80
2022-08-19T18:06:46.042Z,2.47
2022-08-19T18:09:19.399Z,1.33
2022-08-19T18:11:47.369Z,3.13
2022-08-19T18:14:19.445Z,0.93
2022-08-19T18:16:46.533Z,0.82
2022-08-19T18:19:13.111Z,0.90
2022-08-19T18:21:40.813Z,0.30
2022-08-19T18:24:07.977Z,1.25
2022-08-19T18:26:34.918Z,0.68
2022-08-19T18:29:02.000Z,1.27
2022-08-19T18:31:29.145Z,1.92
2022-08-19T18:33:55.953Z,1.67
2022-08-19T18:36:49.998Z,0.70
2022-08-19T18:39:29.387Z,2.55
2022-08-19T18:42:14.788Z,0.63
2022-08-19T18:45:00.353Z,1.75
2022-08-19T18:47:46.063Z,2.63
2022-08-19T18:50:13.106Z,2.25
2022-08-19T18:52:40.722Z,1.67
2022-08-19T18:55:08.089Z,1.88
2022-08-19T18:57:35.019Z,0.47
2022-08-19T19:00:02.792Z,0.35
2022-08-19T19:02:29.363Z,1.05
2022-08-19T19:04:56.247Z,0.38
2022-08-19T19:07:23.366Z,0.60
2022-08-19T19:09:53.057Z,0.30
2022-08-19T19:12:19.659Z,0.25
2022-08-19T19:14:49.456Z,1.75
2022-08-19T19:17:17.183Z,1.45
2022-08-19T19:19:44.107Z,3.22
2022-08-19T19:22:13.427Z,0.50
2022-08-19T19:24:44.174Z,0.50
2022-08-19T19:27:13.015Z,1.15
2022-08-19T19:29:40.687Z,2.60
2022-08-19T19:32:11.186Z,1.85
2022-08-19T19:34:38.779Z,0.85
2022-08-19T19:37:05.644Z,1.38
2022-08-19T19:39:46.347Z,1.55
2022-08-19T19:42:20.456Z,1.02
2022-08-19T19:44:50.480Z,0.50
2022-08-19T19:47:18.966Z,1.20
2022-08-19T19:50:10.825Z,1.33
2022-08-19T19:52:33.534Z,2.78
2022-08-19T19:55:01.304Z,1.67
2022-08-19T19:57:29.317Z,2.85
2022-08-19T19:59:56.235Z,2.03
2022-08-19T20:02:22.913Z,5.53
2022-08-19T20:04:50.497Z,1.30
2022-08-19T20:07:17.563Z,2.75
2022-08-19T20:09:59.376Z,2.38
2022-08-19T20:12:26.978Z,3.10
2022-08-19T20:14:53.492Z,2.92
2022-08-19T20:17:20.730Z,3.28
2022-08-19T20:19:47.812Z,3.13
2022-08-19T20:22:14.537Z,5.13
2022-08-19T20:24:42.608Z,3.97
2022-08-19T20:27:10.782Z,4.00
2022-08-19T20:29:41.535Z,3.47
2022-08-19T20:32:10.270Z,3.78
2022-08-19T20:34:37.246Z,3.80
2022-08-19T20:37:04.006Z,2.10
2022-08-19T20:39:31.019Z,3.30
2022-08-19T20:41:57.543Z,2.45
2022-08-19T20:44:25.553Z,2.75
2022-08-19T20:46:54.797Z,3.80
2022-08-19T20:49:27.152Z,3.80
2022-08-19T20:51:55.654Z,3.63
2022-08-19T20:54:22.298Z,4.88
2022-08-19T20:56:48.807Z,3.92
2022-08-19T20:59:15.360Z,3.10
2022-08-19T21:01:42.560Z,3.17
2022-08-19T21:04:09.150Z,2.33
2022-08-19T21:06:37.067Z,5.85
2022-08-19T21:09:03.675Z,2.78
2022-08-19T21:11:32.326Z,3.55
2022-08-19T21:13:59.407Z,6.90
2022-08-19T21:16:26.185Z,3.95
2022-08-19T21:18:52.692Z,5.28
2022-08-19T21:21:19.408Z,3.55
2022-08-19T21:23:46.085Z,6.63
2022-08-19T21:26:12.727Z,3.30
2022-08-19T21:28:39.276Z,3.88
2022-08-19T21:31:07.267Z,4.55
2022-08-19T21:33:34.100Z,4.20
2022-08-19T21:36:00.728Z,2.90
2022-08-19T21:38:27.665Z,3.50
2022-08-19T21:40:55.325Z,2.67
2022-08-19T21:43:22.602Z,3.13
2022-08-19T21:45:50.977Z,4.57
2022-08-19T21:48:17.984Z,5.22
2022-08-19T21:50:48.257Z,4.80
2022-08-19T21:53:18.457Z,1.92
2022-08-19T21:55:48.107Z,5.47
2022-08-19T21:58:19.966Z,3.08
2022-08-19T22:00:55.889Z,4.50
2022-08-19T22:03:22.909Z,9.65
2022-08-19T22:05:49.616Z,6.13
2022-08-19T22:08:16.187Z,10.05
2022-08-19T22:10:42.702Z,4.57
2022-08-19T22:13:09.496Z,2.47
2022-08-19T22:15:36.062Z,3.22
2022-08-19T22:18:02.770Z,2.63
2022-08-19T22:20:31.589Z,2.60
2022-08-19T22:23:02.053Z,3.38
2022-08-19T22:25:39.552Z,3.60
2022-08-19T22:28:10.934Z,2.75
2022-08-19T22:30:41.688Z,4.40
2022-08-19T22:33:12.579Z,3.17
2022-08-19T22:35:41.395Z,4.57
2022-08-19T22:38:10.148Z,4.35
2022-08-19T22:40:40.798Z,3.80
2022-08-19T22:43:15.170Z,5.55
2022-08-19T22:45:43.174Z,3.72
2022-08-19T22:48:12.028Z,6.68
2022-08-19T22:50:39.876Z,4.75
2022-08-19T22:53:07.658Z,4.30
2022-08-19T22:55:36.152Z,6.00
2022-08-19T22:58:03.446Z,3.38
2022-08-19T23:00:31.124Z,9.27
2022-08-19T23:02:58.426Z,4.45
2022-08-19T23:05:28.627Z,4.10
2022-08-19T23:07:57.953Z,6.05
2022-08-19T23:10:29.198Z,9.18
2022-08-19T23:12:59.957Z,4.45
2022-08-19T23:15:29.502Z,5.60
2022-08-19T23:17:58.603Z,7.15
2022-08-19T23:20:27.736Z,3.85
2022-08-19T23:22:55.529Z,7.20
2022-08-19T23:25:26.493Z,7.38
2022-08-19T23:28:11.905Z,5.97
2022-08-19T23:30:43.625Z,5.28
2022-08-19T23:33:24.680Z,15.65
2022-08-19T23:35:58.545Z,6.65
2022-08-19T23:38:26.944Z,5.20
2022-08-19T23:40:55.781Z,4.05
2022-08-19T23:43:25.118Z,6.22
2022-08-19T23:45:53.720Z,3.53
2022-08-19T23:48:24.553Z,4.60
2022-08-19T23:50:52.137Z,12.20
2022-08-19T23:53:19.294Z,3.30
2022-08-19T23:55:47.914Z,4.20
2022-08-19T23:58:15.611Z,7.05
